Terminal Aerodrome Forecast
Issued by NWS

Home | Current Version | Previous Version | Graphics & Text | Print | Product List | Glossary On
Versions: 1 2 3 4 5 6 7 8 9 10 11 12 13 14 15
000
FTUS43 KGRB 282300
TAFAUW
TAF
KAUW 282338Z 0100/0124 19008KT P6SM BKN100
     FM010400 20006KT P6SM SCT030 BKN060
     FM010800 20006KT P6SM -SN OVC025
     FM011500 24007G14KT P6SM SCT030 BKN120
     FM011900 27009KT P6SM SCT120 BKN200=

USA.gov is the U.S. government's official web portal to all federal, state and local government web resources and services.